Skip Navigation Links
NOAA logo - Click to go to the NOAA homepage
NOAA's National Weather Service
Alaska Aviation Weather Unit
  NWS logo - Click to go to the NWS homepage
Left Navbar Graphic     08 AKDT = 16 GMT

   
NOAA is celebrating 200 years of science, service, and stewardship. Visit the NOAA 200th celebration Web site to learn more.
USA.gov is the U.S. Government's official Web portal to all Federal, state and local government Web resources and services.
Facebook
NWS on Facebook

Important Change Regarding the AAWU Web Presence

 

Over the last several months, the AAWU has been working to navigate its webpages to a nationally supported server. Security, as well as other needs, have necessitated the change.  In the process, we have made an effort to enhance the functionality of our website, as well as some of our products. As of June 20, 2017, aawu.arh.noaa.gov will be discontinued. The new AAWU web address is weather.gov/aawu. It is now live and will run in-parallel with the old site until it is discontinued. Please send any feedback or questions regarding the new webpages to nws.ar.aawu.webauthors@noaa.gov.  Thank you for your patience during this time of transition.
AAWU Home :: Display TAF Add Bookmark
TAF PADQ 231138Z 2312/2412 28008KT P6SM BKN100 OVC200
     FM240000 18011KT P6SM -SHRA SCT025 OVC040
     FM240700 18008KT 4SM -RA OVC025=
PADQ 231053Z AUTO 31007KT 10SM CLR 04/01 A3008 RMK SLP187
     T00440006 TSNO VIA AUTODIAL=

METAR PADQ 231153Z AUTO 22004KT 10SM CLR 05/00 A3009=

PADQ 231156Z 23003KT 10SM FEW055 BKN180 05/00 A3009=

PADQ 231156Z 23003KT 10SM FEW055 BKN180 05/00 A3009 RMK AO2
     T00500000=

METAR PADQ 231253Z 00000KT 10SM FEW055 BKN180 04/M01 A3011=

METAR PADQ 231353Z 22004KT 10SM FEW055 BKN180 05/00 A3011=

METAR PADQ 231453Z 00000KT 10SM FEW055 BKN110 BKN180 07/01 A3011=

METAR PADQ 231553Z 11004KT 10SM FEW055 BKN110 BKN180 08/00 A3012=


NOAA's National Weather Service
Alaska Aviation Weather Unit
6930 Sand Lake Road
Anchorage, AK 99502-1845
Disclaimer
Credits
Glossary
Privacy Policy
About Us
Career Opportunities
Contact AAWU Internet Services Site last modified: April, 17th 2012